createdAt,value
2023-05-02T00:03:54.511Z,86.40
2023-05-02T00:08:54.431Z,86.65
2023-05-02T00:13:54.349Z,86.75
2023-05-02T00:18:54.267Z,86.54
2023-05-02T00:23:54.215Z,86.69
2023-05-02T00:28:54.136Z,86.69
2023-05-02T00:33:54.074Z,86.69
2023-05-02T00:38:54.009Z,86.83
2023-05-02T00:43:53.945Z,86.83
2023-05-02T00:48:53.881Z,87.03
2023-05-02T00:53:53.993Z,87.28
2023-05-02T00:58:53.764Z,87.48
2023-05-02T01:03:53.856Z,87.48
2023-05-02T01:08:53.612Z,87.38
2023-05-02T01:13:53.551Z,87.28
2023-05-02T01:18:53.479Z,87.07
2023-05-02T01:23:53.432Z,87.03
2023-05-02T01:28:53.346Z,87.03
2023-05-02T01:33:53.289Z,86.93
2023-05-02T01:38:53.222Z,86.73
2023-05-02T01:43:53.154Z,86.73
2023-05-02T01:48:53.117Z,86.42
2023-05-02T01:53:53.033Z,86.28
2023-05-02T01:58:52.980Z,86.18
2023-05-02T02:03:52.992Z,86.18
2023-05-02T02:08:52.947Z,86.07
2023-05-02T02:13:52.771Z,85.77
2023-05-02T02:18:52.711Z,85.66
2023-05-02T02:23:52.631Z,85.32
2023-05-02T02:28:52.574Z,85.42
2023-05-02T02:33:52.502Z,85.62
2023-05-02T02:38:52.452Z,85.77
2023-05-02T02:43:52.375Z,86.38
2023-05-02T02:48:52.316Z,86.48
2023-05-02T02:53:52.250Z,86.28
2023-05-02T02:58:52.182Z,86.18
2023-05-02T03:03:52.164Z,86.07
2023-05-02T03:08:52.032Z,85.87
2023-05-02T03:13:51.984Z,85.46
2023-05-02T03:18:51.899Z,85.77
2023-05-02T03:23:51.867Z,86.07
2023-05-02T03:28:51.777Z,86.18
2023-05-02T03:33:51.719Z,86.07
2023-05-02T03:38:51.646Z,86.28
2023-05-02T03:43:51.605Z,86.83
2023-05-02T03:48:51.518Z,87.34
2023-05-02T03:53:51.466Z,88.20
2023-05-02T03:58:51.385Z,88.10
2023-05-02T04:03:51.378Z,87.69
2023-05-02T04:08:51.264Z,87.59
2023-05-02T04:13:52.668Z,87.34
2023-05-02T04:18:51.124Z,87.24
2023-05-02T04:23:51.064Z,87.13
2023-05-02T04:28:51.000Z,87.13
2023-05-02T04:33:50.940Z,87.03
2023-05-02T04:38:50.864Z,87.13
2023-05-02T04:43:50.802Z,87.51
2023-05-02T04:48:50.735Z,87.81
2023-05-02T04:53:50.667Z,87.81
2023-05-02T04:58:50.606Z,88.01
2023-05-02T05:03:50.632Z,87.92
2023-05-02T05:08:50.462Z,87.36
2023-05-02T05:13:50.406Z,87.32
2023-05-02T05:18:50.337Z,87.01
2023-05-02T05:23:50.281Z,86.46
2023-05-02T05:28:50.213Z,86.57
2023-05-02T05:33:50.168Z,87.04
2023-05-02T05:38:50.070Z,86.63
2023-05-02T05:43:50.014Z,86.83
2023-05-02T05:48:49.952Z,86.93
2023-05-02T05:53:49.942Z,86.93
2023-05-02T05:58:49.838Z,87.34
2023-05-02T06:03:49.834Z,87.20
2023-05-02T06:08:49.688Z,86.89
2023-05-02T06:13:49.624Z,87.10
2023-05-02T06:18:49.556Z,87.46
2023-05-02T06:23:49.492Z,87.26
2023-05-02T06:28:49.419Z,87.32
2023-05-02T06:33:49.363Z,87.32
2023-05-02T06:38:49.279Z,87.48
2023-05-02T06:43:49.234Z,87.59
2023-05-02T06:48:49.153Z,87.24
2023-05-02T06:53:49.101Z,87.10
2023-05-02T06:58:49.013Z,86.99
2023-05-02T07:03:49.035Z,85.73
2023-05-02T07:08:48.880Z,83.86
2023-05-02T07:13:48.824Z,82.40
2023-05-02T07:18:48.779Z,81.55
2023-05-02T07:23:48.702Z,80.63
2023-05-02T07:28:48.619Z,81.35
2023-05-02T07:33:48.567Z,83.52
2023-05-02T07:38:48.494Z,84.43
2023-05-02T07:43:48.442Z,85.35
2023-05-02T07:48:48.376Z,85.15
2023-05-02T07:53:48.311Z,85.15
2023-05-02T07:58:48.250Z,84.50
2023-05-02T08:03:48.314Z,84.94
2023-05-02T08:08:48.119Z,86.10
2023-05-02T08:13:48.055Z,87.01
2023-05-02T08:18:47.993Z,87.22
2023-05-02T08:23:47.931Z,87.53
2023-05-02T08:28:47.858Z,86.81
2023-05-02T08:33:47.808Z,86.26
2023-05-02T08:38:47.723Z,85.62
2023-05-02T08:43:47.681Z,82.39
2023-05-02T08:48:47.594Z,81.37
2023-05-02T08:53:47.550Z,80.22
2023-05-02T08:58:47.463Z,79.16
2023-05-02T09:03:47.490Z,78.66
2023-05-02T09:08:47.616Z,77.91
2023-05-02T09:13:47.261Z,77.67
2023-05-02T09:18:47.208Z,76.77
2023-05-02T09:23:47.183Z,76.12
2023-05-02T09:28:47.063Z,75.92
2023-05-02T09:33:47.000Z,74.50
2023-05-02T09:38:46.941Z,74.94
2023-05-02T09:43:46.869Z,72.78
2023-05-02T09:48:46.792Z,73.12
2023-05-02T09:53:46.743Z,70.72
2023-05-02T09:58:46.655Z,69.88
2023-05-02T10:03:46.669Z,68.84
2023-05-02T10:08:46.527Z,68.97
2023-05-02T10:13:46.477Z,69.75
2023-05-02T10:18:46.393Z,67.76
2023-05-02T10:23:46.335Z,70.62
2023-05-02T10:28:46.259Z,69.04
2023-05-02T10:33:46.205Z,70.25
2023-05-02T10:38:46.134Z,69.17
2023-05-02T10:43:46.071Z,66.58
2023-05-02T10:48:45.998Z,65.85
2023-05-02T10:53:45.940Z,65.82
2023-05-02T10:58:45.867Z,65.11
2023-05-02T11:03:45.815Z,65.55
2023-05-02T11:08:45.735Z,66.22
2023-05-02T11:13:45.687Z,66.72
2023-05-02T11:18:45.603Z,68.27
2023-05-02T11:23:45.555Z,68.87
2023-05-02T11:28:45.485Z,67.63
2023-05-02T11:33:45.426Z,66.36
2023-05-02T11:38:45.351Z,66.32
2023-05-02T11:43:45.284Z,69.75
2023-05-02T11:48:45.211Z,71.70
2023-05-02T11:53:45.156Z,73.69
2023-05-02T11:58:45.079Z,74.54
2023-05-02T12:03:45.222Z,75.54
2023-05-02T12:08:44.977Z,76.73
2023-05-02T12:13:44.899Z,78.80
2023-05-02T12:18:44.824Z,80.76
2023-05-02T12:23:44.792Z,82.53
2023-05-02T12:28:44.694Z,84.60
2023-05-02T12:33:44.643Z,85.31
2023-05-02T12:38:44.558Z,86.02
2023-05-02T12:43:44.512Z,86.52
2023-05-02T12:48:45.019Z,87.34
2023-05-02T12:53:44.402Z,88.15
2023-05-02T12:58:44.300Z,88.36
2023-05-02T13:03:44.305Z,88.01
2023-05-02T13:08:44.176Z,86.55
2023-05-02T13:13:44.097Z,86.63
2023-05-02T13:18:45.576Z,84.26
2023-05-02T13:23:43.999Z,83.69
2023-05-02T13:28:44.489Z,79.63
2023-05-02T13:33:43.831Z,79.19
2023-05-02T13:38:43.761Z,80.74
2023-05-02T13:43:43.706Z,78.37
2023-05-02T13:48:43.631Z,74.09
2023-05-02T13:53:43.579Z,73.99
2023-05-02T13:58:43.508Z,75.51
2023-05-02T14:03:43.500Z,75.31
2023-05-02T14:08:43.365Z,74.30
2023-05-02T14:13:43.319Z,73.25
2023-05-02T14:18:43.229Z,71.26
2023-05-02T14:23:43.174Z,71.46
2023-05-02T14:28:43.111Z,71.16
2023-05-02T14:33:43.084Z,72.47
2023-05-02T14:38:42.972Z,70.85
2023-05-02T14:43:42.933Z,71.26
2023-05-02T14:48:42.840Z,72.21
2023-05-02T14:53:42.782Z,72.54
2023-05-02T14:58:42.709Z,72.27
2023-05-02T15:04:00.887Z,71.87
2023-05-02T15:08:43.600Z,72.41
2023-05-02T15:13:42.515Z,72.91
2023-05-02T15:18:42.437Z,73.43
2023-05-02T15:23:42.380Z,72.98
2023-05-02T15:28:42.299Z,73.43
2023-05-02T15:33:42.248Z,73.02
2023-05-02T15:38:42.188Z,73.36
2023-05-02T15:43:42.111Z,72.85
2023-05-02T15:48:42.065Z,72.65
2023-05-02T15:53:41.973Z,72.27
2023-05-02T15:58:41.909Z,72.07
2023-05-02T16:03:41.919Z,71.60
2023-05-02T16:08:41.845Z,71.42
2023-05-02T16:13:41.718Z,70.71
2023-05-02T16:18:41.657Z,70.92
2023-05-02T16:23:41.582Z,71.36
2023-05-02T16:28:41.509Z,70.64
2023-05-02T16:33:41.451Z,71.70
2023-05-02T16:38:41.388Z,72.58
2023-05-02T16:43:41.325Z,72.78
2023-05-02T16:48:41.255Z,71.66
2023-05-02T16:53:41.199Z,71.80
2023-05-02T16:58:41.141Z,71.73
2023-05-02T17:03:41.147Z,72.14
2023-05-02T17:08:41.005Z,72.68
2023-05-02T17:13:40.938Z,72.58
2023-05-02T17:18:40.873Z,71.77
2023-05-02T17:23:40.801Z,72.47
2023-05-02T17:28:40.740Z,72.51
2023-05-02T17:33:40.671Z,71.90
2023-05-02T17:38:40.608Z,72.61
2023-05-02T17:43:40.540Z,72.10
2023-05-02T17:48:40.477Z,72.00
2023-05-02T17:53:40.425Z,72.21
2023-05-02T17:58:40.347Z,72.31
2023-05-02T18:03:40.334Z,72.00
2023-05-02T18:08:40.213Z,71.60
2023-05-02T18:13:40.148Z,70.20
2023-05-02T18:18:40.086Z,69.48
2023-05-02T18:23:40.056Z,68.87
2023-05-02T18:28:40.721Z,69.18
2023-05-02T18:33:39.883Z,69.68
2023-05-02T18:38:39.810Z,70.23
2023-05-02T18:43:39.754Z,70.54
2023-05-02T18:48:39.690Z,71.56
2023-05-02T18:53:39.628Z,72.10
2023-05-02T18:58:39.544Z,72.61
2023-05-02T19:03:39.680Z,73.02
2023-05-02T19:08:39.477Z,73.74
2023-05-02T19:13:39.366Z,73.53
2023-05-02T19:18:39.298Z,74.24
2023-05-02T19:23:39.227Z,74.59
2023-05-02T19:28:39.163Z,75.40
2023-05-02T19:33:39.106Z,75.92
2023-05-02T19:38:39.033Z,76.12
2023-05-02T19:43:38.966Z,76.43
2023-05-02T19:48:38.902Z,76.47
2023-05-02T19:53:38.862Z,76.26
2023-05-02T19:58:38.776Z,75.44
2023-05-02T20:03:38.914Z,74.83
2023-05-02T20:08:38.644Z,75.17
2023-05-02T20:13:38.579Z,75.78
2023-05-02T20:18:38.499Z,74.45
2023-05-02T20:23:38.435Z,73.43
2023-05-02T20:28:38.369Z,73.43
2023-05-02T20:33:45.286Z,71.79
2023-05-02T20:38:38.233Z,70.26
2023-05-02T20:43:38.178Z,70.26
2023-05-02T20:48:38.108Z,69.14
2023-05-02T20:53:38.091Z,68.45
2023-05-02T20:58:37.983Z,69.17
2023-05-02T21:03:37.939Z,69.58
2023-05-02T21:08:37.851Z,69.51
2023-05-02T21:13:37.801Z,69.00
2023-05-02T21:18:37.711Z,69.61
2023-05-02T21:23:37.674Z,69.81
2023-05-02T21:28:37.580Z,70.22
2023-05-02T21:33:37.528Z,70.05
2023-05-02T21:38:37.457Z,70.05
2023-05-02T21:43:37.388Z,70.05
2023-05-02T21:48:37.310Z,69.23
2023-05-02T21:53:37.256Z,68.92
2023-05-02T21:58:37.188Z,68.96
2023-05-02T22:03:37.201Z,69.37
2023-05-02T22:08:37.047Z,69.78
2023-05-02T22:13:37.056Z,69.37
2023-05-02T22:18:36.937Z,69.78
2023-05-02T22:23:36.875Z,69.40
2023-05-02T22:28:36.788Z,70.22
2023-05-02T22:33:36.754Z,70.42
2023-05-02T22:38:36.653Z,70.83
2023-05-02T22:43:36.605Z,71.48
2023-05-02T22:48:36.537Z,72.20
2023-05-02T22:53:36.471Z,72.10
2023-05-02T22:58:36.391Z,72.92
2023-05-02T23:03:36.473Z,72.54
2023-05-02T23:08:36.265Z,73.57
2023-05-02T23:13:36.195Z,73.91
2023-05-02T23:18:36.137Z,74.93
2023-05-02T23:23:36.069Z,74.76
2023-05-02T23:28:36.012Z,75.38
2023-05-02T23:33:35.936Z,76.10
2023-05-02T23:38:35.869Z,75.59
2023-05-02T23:43:35.797Z,75.69
2023-05-02T23:48:35.748Z,76.75
2023-05-02T23:53:35.821Z,76.75
2023-05-02T23:58:35.624Z,76.79
